Nocc Pamplona — LALG5 — position and weather

sailwx.info

Track history (hours):
 
Tides and Currents Weather Stations Pressure Air Temp Water Temp Dewpoint Dewpoint Depression Visibility Wind Speed Wind Dir Waves Ship Positions

Nocc Pamplona

Last reported at 2015-Mar-28 11:20 UTC. Time now 2015-Apr-02 09:49 UTC.
Position N 34°02' E 130°12'.

Length 177 m; draft 7.4 m.

Type: Cargo ship. MMSI: 257349000.

Date/timePositionNaut miles runAvg speedWind from/ knotsBaromVisibWave heightAir tempDewpointWater temp
2015-Mar-28 11:20N 34°02' E 130°12'1417.1
2015-Mar-28 10:30N 34°03' E 130°29'1716.8
2015-Mar-28 09:30N 34°03' E 130°49'  
2015-Mar-25 15:32N 34°26' E 138°27'6416.1
2015-Mar-25 11:33N 34°53' E 139°38'1717.0
2015-Mar-25 10:34N 35°09' E 139°45'1211.8
2015-Mar-25 09:34N 35°21' E 139°42'7 6.5
2015-Mar-25 08:32N 35°27' E 139°41'0 0.0
2015-Mar-25 07:32N 35°27' E 139°41'0 0.0
2015-Mar-25 06:32N 35°27' E 139°41'0 0.0
2015-Mar-25 05:32N 35°27' E 139°41'0 0.0
2015-Mar-25 04:32N 35°27' E 139°41'2 1.9
2015-Mar-25 03:33N 35°26' E 139°43'2 1.5
2015-Mar-25 02:31N 35°25' E 139°41'0 0.0
2015-Mar-25 01:31N 35°25' E 139°41'0 0.0
2015-Mar-25 00:31N 35°25' E 139°41'0 0.0
2015-Mar-24 23:31N 35°25' E 139°41'0 0.0
2015-Mar-24 22:33N 35°25' E 139°41'1 1.3
2015-Mar-24 21:31N 35°25' E 139°42'0 0.1
2015-Mar-24 20:31N 35°25' E 139°42'0 0.0
2015-Mar-24 19:31N 35°25' E 139°42'0 0.0
2015-Mar-24 18:31N 35°25' E 139°42'0 0.0
2015-Mar-24 17:31N 35°25' E 139°42'0 0.0
2015-Mar-24 16:31N 35°25' E 139°42'0 0.0
2015-Mar-24 15:31N 35°25' E 139°42'0 0.0
2015-Mar-24 14:31N 35°25' E 139°42'0 0.1
2015-Mar-24 13:31N 35°25' E 139°42'0 0.0
2015-Mar-24 12:31N 35°25' E 139°42'0 0.0
2015-Mar-24 11:31N 35°25' E 139°42'0 0.1
2015-Mar-24 10:31N 35°25' E 139°42'0 0.1
2015-Mar-24 09:31N 35°25' E 139°42'0 0.0
2015-Mar-24 08:31N 35°25' E 139°42'0 0.0
2015-Mar-24 07:31N 35°25' E 139°42'0 0.0
2015-Mar-24 06:31N 35°25' E 139°42'0 0.1
2015-Mar-24 05:31N 35°25' E 139°42'0 0.1
2015-Mar-24 04:32N 35°25' E 139°42'0 0.1
2015-Mar-24 03:31N 35°25' E 139°42'0 0.1
2015-Mar-24 02:31N 35°25' E 139°42'0 0.0
2015-Mar-24 01:31N 35°25' E 139°42'0 0.1
2015-Mar-24 00:31N 35°25' E 139°42'0 0.1
2015-Mar-23 23:31N 35°25' E 139°42'0 0.0
2015-Mar-23 22:31N 35°25' E 139°42'0 0.0
2015-Mar-23 21:31N 35°25' E 139°42'0 0.0
2015-Mar-23 20:31N 35°25' E 139°42'0 0.0
2015-Mar-23 19:31N 35°25' E 139°42'0 0.0
2015-Mar-23 18:31N 35°25' E 139°42'0 0.0
2015-Mar-23 17:31N 35°25' E 139°42'0 0.0
2015-Mar-23 16:31N 35°25' E 139°42'0 0.0
2015-Mar-23 15:31N 35°25' E 139°42'0 0.0
2015-Mar-23 14:31N 35°25' E 139°42'0 0.0
2015-Mar-23 13:31N 35°25' E 139°42'0 0.0
2015-Mar-23 12:31N 35°25' E 139°42'0 0.0
2015-Mar-23 11:31N 35°25' E 139°42'0 0.0
2015-Mar-23 10:31N 35°25' E 139°42'0 0.1
2015-Mar-23 09:31N 35°25' E 139°42'0 0.1
2015-Mar-23 08:31N 35°25' E 139°42'0 0.1
2015-Mar-23 07:31N 35°25' E 139°42'0 0.1
2015-Mar-23 06:31N 35°25' E 139°42'0 0.1
2015-Mar-23 05:31N 35°25' E 139°42'0 0.0
2015-Mar-23 04:31N 35°25' E 139°42'0 0.0
2015-Mar-23 03:31N 35°25' E 139°42'0 0.0
2015-Mar-23 02:31N 35°25' E 139°42'0 0.0
2015-Mar-23 01:31N 35°25' E 139°42'0 0.0
2015-Mar-23 00:32N 35°25' E 139°42'2 2.0
2015-Mar-22 23:34N 35°23' E 139°43'1211.8
2015-Mar-22 22:33N 35°12' E 139°47'10 9.7
2015-Mar-22 21:33N 35°02' E 139°44'1110.8
2015-Mar-22 20:33N 34°52' E 139°42'1211.9
2015-Mar-22 19:34N 34°40' E 139°40'236 9.1
2015-Mar-21 17:32N 34°05' E 134°57'1515.4
2015-Mar-21 16:33N 34°20' E 134°60'1514.9
2015-Mar-21 15:33N 34°35' E 135°05'1212.2
2015-Mar-21 14:33N 34°34' E 134°50'  
Track history (hours):
 
Tides and Currents Weather Stations Pressure Air Temp Water Temp Dewpoint Dewpoint Depression Visibility Wind Speed Wind Dir Waves Ship Positions

Nocc Pamplona

Last reported at 2015-Mar-28 11:20 UTC. Time now 2015-Apr-02 09:49 UTC.
Position N 34°02' E 130°12'.

Length 177 m; draft 7.4 m.

Type: Cargo ship. MMSI: 257349000.

Date/timePositionNaut miles runAvg speedWind from/ knotsBaromVisibWave heightAir tempDewpointWater temp
2015-Mar-28 11:20N 34°02' E 130°12'1417.1
2015-Mar-28 10:30N 34°03' E 130°29'1716.8
2015-Mar-28 09:30N 34°03' E 130°49'  
2015-Mar-25 15:32N 34°26' E 138°27'6416.1
2015-Mar-25 11:33N 34°53' E 139°38'1717.0
2015-Mar-25 10:34N 35°09' E 139°45'1211.8
2015-Mar-25 09:34N 35°21' E 139°42'7 6.5
2015-Mar-25 08:32N 35°27' E 139°41'0 0.0
2015-Mar-25 07:32N 35°27' E 139°41'0 0.0
2015-Mar-25 06:32N 35°27' E 139°41'0 0.0
2015-Mar-25 05:32N 35°27' E 139°41'0 0.0
2015-Mar-25 04:32N 35°27' E 139°41'2 1.9
2015-Mar-25 03:33N 35°26' E 139°43'2 1.5
2015-Mar-25 02:31N 35°25' E 139°41'0 0.0
2015-Mar-25 01:31N 35°25' E 139°41'0 0.0
2015-Mar-25 00:31N 35°25' E 139°41'0 0.0
2015-Mar-24 23:31N 35°25' E 139°41'0 0.0
2015-Mar-24 22:33N 35°25' E 139°41'1 1.3
2015-Mar-24 21:31N 35°25' E 139°42'0 0.1
2015-Mar-24 20:31N 35°25' E 139°42'0 0.0
2015-Mar-24 19:31N 35°25' E 139°42'0 0.0
2015-Mar-24 18:31N 35°25' E 139°42'0 0.0
2015-Mar-24 17:31N 35°25' E 139°42'0 0.0
2015-Mar-24 16:31N 35°25' E 139°42'0 0.0
2015-Mar-24 15:31N 35°25' E 139°42'0 0.0
2015-Mar-24 14:31N 35°25' E 139°42'0 0.1
2015-Mar-24 13:31N 35°25' E 139°42'0 0.0
2015-Mar-24 12:31N 35°25' E 139°42'0 0.0
2015-Mar-24 11:31N 35°25' E 139°42'0 0.1
2015-Mar-24 10:31N 35°25' E 139°42'0 0.1
2015-Mar-24 09:31N 35°25' E 139°42'0 0.0
2015-Mar-24 08:31N 35°25' E 139°42'0 0.0
2015-Mar-24 07:31N 35°25' E 139°42'0 0.0
2015-Mar-24 06:31N 35°25' E 139°42'0 0.1
2015-Mar-24 05:31N 35°25' E 139°42'0 0.1
2015-Mar-24 04:32N 35°25' E 139°42'0 0.1
2015-Mar-24 03:31N 35°25' E 139°42'0 0.1
2015-Mar-24 02:31N 35°25' E 139°42'0 0.0
2015-Mar-24 01:31N 35°25' E 139°42'0 0.1
2015-Mar-24 00:31N 35°25' E 139°42'0 0.1
2015-Mar-23 23:31N 35°25' E 139°42'0 0.0
2015-Mar-23 22:31N 35°25' E 139°42'0 0.0
2015-Mar-23 21:31N 35°25' E 139°42'0 0.0
2015-Mar-23 20:31N 35°25' E 139°42'0 0.0
2015-Mar-23 19:31N 35°25' E 139°42'0 0.0
2015-Mar-23 18:31N 35°25' E 139°42'0 0.0
2015-Mar-23 17:31N 35°25' E 139°42'0 0.0
2015-Mar-23 16:31N 35°25' E 139°42'0 0.0
2015-Mar-23 15:31N 35°25' E 139°42'0 0.0
2015-Mar-23 14:31N 35°25' E 139°42'0 0.0
2015-Mar-23 13:31N 35°25' E 139°42'0 0.0
2015-Mar-23 12:31N 35°25' E 139°42'0 0.0
2015-Mar-23 11:31N 35°25' E 139°42'0 0.0
2015-Mar-23 10:31N 35°25' E 139°42'0 0.1
2015-Mar-23 09:31N 35°25' E 139°42'0 0.1
2015-Mar-23 08:31N 35°25' E 139°42'0 0.1
2015-Mar-23 07:31N 35°25' E 139°42'0 0.1
2015-Mar-23 06:31N 35°25' E 139°42'0 0.1
2015-Mar-23 05:31N 35°25' E 139°42'0 0.0
2015-Mar-23 04:31N 35°25' E 139°42'0 0.0
2015-Mar-23 03:31N 35°25' E 139°42'0 0.0
2015-Mar-23 02:31N 35°25' E 139°42'0 0.0
2015-Mar-23 01:31N 35°25' E 139°42'0 0.0
2015-Mar-23 00:32N 35°25' E 139°42'2 2.0
2015-Mar-22 23:34N 35°23' E 139°43'1211.8
2015-Mar-22 22:33N 35°12' E 139°47'10 9.7
2015-Mar-22 21:33N 35°02' E 139°44'1110.8
2015-Mar-22 20:33N 34°52' E 139°42'1211.9
2015-Mar-22 19:34N 34°40' E 139°40'236 9.1
2015-Mar-21 17:32N 34°05' E 134°57'1515.4
2015-Mar-21 16:33N 34°20' E 134°60'1514.9
2015-Mar-21 15:33N 34°35' E 135°05'1212.2
2015-Mar-21 14:33N 34°34' E 134°50'  

Dump ship's entire track history